sensor_id;sensor_type;location;lat;lon;timestamp;pressure;altitude;pressure_sealevel;temperature;humidity
10940;BME280;5522;42.696;23.494;2023-02-28T00:01:31;53747.25;;;-139.68;100.00
10940;BME280;5522;42.696;23.494;2023-02-28T00:03:59;53753.28;;;-139.68;100.00
10940;BME280;5522;42.696;23.494;2023-02-28T00:06:26;53789.47;;;-139.68;100.00
10940;BME280;5522;42.696;23.494;2023-02-28T00:08:53;53775.41;;;-139.68;100.00
10940;BME280;5522;42.696;23.494;2023-02-28T00:11:21;53751.28;;;-139.68;100.00
10940;BME280;5522;42.696;23.494;2023-02-28T00:13:49;53765.34;;;-139.68;100.00
10940;BME280;5522;42.696;23.494;2023-02-28T00:16:18;53719.13;;;-139.68;100.00
10940;BME280;5522;42.696;23.494;2023-02-28T00:18:45;53731.19;;;-139.68;100.00
10940;BME280;5522;42.696;23.494;2023-02-28T00:21:14;53759.31;;;-139.68;100.00
10940;BME280;5522;42.696;23.494;2023-02-28T00:23:41;53745.25;;;-139.68;100.00
10940;BME280;5522;42.696;23.494;2023-02-28T00:26:09;53735.19;;;-139.68;100.00
10940;BME280;5522;42.696;23.494;2023-02-28T00:28:37;53715.09;;;-139.68;100.00
10940;BME280;5522;42.696;23.494;2023-02-28T00:31:04;53739.22;;;-139.68;100.00
10940;BME280;5522;42.696;23.494;2023-02-28T00:33:31;53779.44;;;-139.68;100.00
10940;BME280;5522;42.696;23.494;2023-02-28T00:36:05;53763.34;;;-139.68;100.00
10940;BME280;5522;42.696;23.494;2023-02-28T00:38:32;53795.50;;;-139.68;100.00
10940;BME280;5522;42.696;23.494;2023-02-28T00:40:59;53759.31;;;-139.68;100.00
10940;BME280;5522;42.696;23.494;2023-02-28T00:43:30;53761.34;;;-139.68;100.00
10940;BME280;5522;42.696;23.494;2023-02-28T00:45:59;53757.31;;;-139.68;100.00
10940;BME280;5522;42.696;23.494;2023-02-28T00:48:26;53811.59;;;-139.68;100.00
10940;BME280;5522;42.696;23.494;2023-02-28T00:50:53;53787.47;;;-139.68;100.00
10940;BME280;5522;42.696;23.494;2023-02-28T00:53:20;53767.38;;;-139.68;100.00
10940;BME280;5522;42.696;23.494;2023-02-28T00:55:48;53759.31;;;-139.68;100.00
10940;BME280;5522;42.696;23.494;2023-02-28T00:58:15;53781.44;;;-139.68;100.00
10940;BME280;5522;42.696;23.494;2023-02-28T01:05:54;53771.38;;;-139.68;100.00
10940;BME280;5522;42.696;23.494;2023-02-28T01:08:21;53727.16;;;-139.68;100.00
10940;BME280;5522;42.696;23.494;2023-02-28T01:10:49;53757.31;;;-139.68;100.00
10940;BME280;5522;42.696;23.494;2023-02-28T01:13:16;53753.28;;;-139.68;100.00
10940;BME280;5522;42.696;23.494;2023-02-28T01:15:45;53797.53;;;-139.68;100.00
10940;BME280;5522;42.696;23.494;2023-02-28T01:18:15;53757.31;;;-139.68;100.00
10940;BME280;5522;42.696;23.494;2023-02-28T01:20:42;53751.28;;;-139.68;100.00
10940;BME280;5522;42.696;23.494;2023-02-28T01:23:10;53743.25;;;-139.68;100.00
10940;BME280;5522;42.696;23.494;2023-02-28T01:25:37;53743.25;;;-139.68;100.00
10940;BME280;5522;42.696;23.494;2023-02-28T01:28:04;53751.28;;;-139.68;100.00
10940;BME280;5522;42.696;23.494;2023-02-28T01:30:32;53755.31;;;-139.68;100.00
10940;BME280;5522;42.696;23.494;2023-02-28T01:32:59;53813.59;;;-139.68;100.00
10940;BME280;5522;42.696;23.494;2023-02-28T01:35:26;53743.25;;;-139.68;100.00
10940;BME280;5522;42.696;23.494;2023-02-28T01:37:53;53743.25;;;-139.68;100.00
10940;BME280;5522;42.696;23.494;2023-02-28T01:40:22;53739.22;;;-139.68;100.00
10940;BME280;5522;42.696;23.494;2023-02-28T01:42:48;53743.25;;;-139.68;100.00
10940;BME280;5522;42.696;23.494;2023-02-28T01:45:22;53761.34;;;-139.68;100.00
10940;BME280;5522;42.696;23.494;2023-02-28T01:47:53;53787.47;;;-139.68;100.00
10940;BME280;5522;42.696;23.494;2023-02-28T01:50:23;53767.38;;;-139.68;100.00
10940;BME280;5522;42.696;23.494;2023-02-28T01:52:54;53743.25;;;-139.68;100.00
10940;BME280;5522;42.696;23.494;2023-02-28T01:55:26;53735.19;;;-139.68;100.00
10940;BME280;5522;42.696;23.494;2023-02-28T01:57:56;53723.13;;;-139.68;100.00
10940;BME280;5522;42.696;23.494;2023-02-28T02:00:26;53783.44;;;-139.68;100.00
10940;BME280;5522;42.696;23.494;2023-02-28T02:02:52;53759.31;;;-139.68;100.00
10940;BME280;5522;42.696;23.494;2023-02-28T02:05:22;53755.31;;;-139.68;100.00
10940;BME280;5522;42.696;23.494;2023-02-28T02:07:52;53739.22;;;-139.68;100.00
10940;BME280;5522;42.696;23.494;2023-02-28T02:10:24;53711.09;;;-139.68;100.00
10940;BME280;5522;42.696;23.494;2023-02-28T02:13:06;53711.09;;;-139.68;100.00
10940;BME280;5522;42.696;23.494;2023-02-28T02:15:40;53751.28;;;-139.68;100.00
10940;BME280;5522;42.696;23.494;2023-02-28T02:18:16;53727.16;;;-139.68;100.00
10940;BME280;5522;42.696;23.494;2023-02-28T02:21:09;53737.22;;;-139.68;100.00
10940;BME280;5522;42.696;23.494;2023-02-28T02:26:55;53791.50;;;-139.68;100.00
10940;BME280;5522;42.696;23.494;2023-02-28T02:29:44;53763.34;;;-139.68;100.00
10940;BME280;5522;42.696;23.494;2023-02-28T02:32:28;53775.41;;;-139.68;100.00
10940;BME280;5522;42.696;23.494;2023-02-28T02:35:02;53757.31;;;-139.68;100.00
10940;BME280;5522;42.696;23.494;2023-02-28T02:37:37;53761.34;;;-139.68;100.00
10940;BME280;5522;42.696;23.494;2023-02-28T02:40:11;53749.28;;;-139.68;100.00
10940;BME280;5522;42.696;23.494;2023-02-28T02:42:46;53743.25;;;-139.68;100.00
10940;BME280;5522;42.696;23.494;2023-02-28T02:45:21;53739.22;;;-139.68;100.00
10940;BME280;5522;42.696;23.494;2023-02-28T02:47:49;53751.28;;;-139.68;100.00
10940;BME280;5522;42.696;23.494;2023-02-28T02:50:23;53715.09;;;-139.68;100.00
10940;BME280;5522;42.696;23.494;2023-02-28T02:52:53;53763.34;;;-139.68;100.00
10940;BME280;5522;42.696;23.494;2023-02-28T02:55:23;53731.19;;;-139.68;100.00
10940;BME280;5522;42.696;23.494;2023-02-28T02:57:53;53739.22;;;-139.68;100.00
10940;BME280;5522;42.696;23.494;2023-02-28T03:00:25;53759.31;;;-139.68;100.00
10940;BME280;5522;42.696;23.494;2023-02-28T03:02:54;53747.25;;;-139.68;100.00
10940;BME280;5522;42.696;23.494;2023-02-28T03:05:26;53767.38;;;-139.68;100.00
10940;BME280;5522;42.696;23.494;2023-02-28T03:07:53;53737.22;;;-139.68;100.00
10940;BME280;5522;42.696;23.494;2023-02-28T03:10:32;53751.28;;;-139.68;100.00
10940;BME280;5522;42.696;23.494;2023-02-28T03:13:19;53765.34;;;-139.68;100.00
10940;BME280;5522;42.696;23.494;2023-02-28T03:16:00;53781.44;;;-139.68;100.00
10940;BME280;5522;42.696;23.494;2023-02-28T03:18:37;53739.22;;;-139.68;100.00
10940;BME280;5522;42.696;23.494;2023-02-28T03:21:13;53747.25;;;-139.68;100.00
10940;BME280;5522;42.696;23.494;2023-02-28T03:23:48;53775.41;;;-139.68;100.00
10940;BME280;5522;42.696;23.494;2023-02-28T03:26:20;53743.25;;;-139.68;100.00
10940;BME280;5522;42.696;23.494;2023-02-28T03:28:53;53751.28;;;-139.68;100.00
10940;BME280;5522;42.696;23.494;2023-02-28T03:31:27;53723.13;;;-139.68;100.00
10940;BME280;5522;42.696;23.494;2023-02-28T03:34:00;53743.25;;;-139.68;100.00
10940;BME280;5522;42.696;23.494;2023-02-28T03:36:34;53741.22;;;-139.68;100.00
10940;BME280;5522;42.696;23.494;2023-02-28T03:39:13;53725.16;;;-139.68;100.00
10940;BME280;5522;42.696;23.494;2023-02-28T03:41:43;53727.16;;;-139.68;100.00
10940;BME280;5522;42.696;23.494;2023-02-28T03:44:15;53753.28;;;-139.68;100.00
10940;BME280;5522;42.696;23.494;2023-02-28T03:46:47;53759.31;;;-139.68;100.00
10940;BME280;5522;42.696;23.494;2023-02-28T03:49:17;53697.00;;;-139.68;100.00
10940;BME280;5522;42.696;23.494;2023-02-28T03:51:48;53763.34;;;-139.68;100.00
10940;BME280;5522;42.696;23.494;2023-02-28T03:54:20;53753.28;;;-139.68;100.00
10940;BME280;5522;42.696;23.494;2023-02-28T03:56:51;53749.28;;;-139.68;100.00
10940;BME280;5522;42.696;23.494;2023-02-28T03:59:24;53739.22;;;-139.68;100.00
10940;BME280;5522;42.696;23.494;2023-02-28T04:01:52;53725.16;;;-139.68;100.00
10940;BME280;5522;42.696;23.494;2023-02-28T04:04:20;53747.25;;;-139.68;100.00
10940;BME280;5522;42.696;23.494;2023-02-28T04:06:51;53749.28;;;-139.68;100.00
10940;BME280;5522;42.696;23.494;2023-02-28T04:09:19;53795.50;;;-139.68;100.00
10940;BME280;5522;42.696;23.494;2023-02-28T04:11:49;53703.03;;;-139.68;100.00
10940;BME280;5522;42.696;23.494;2023-02-28T04:14:18;53733.19;;;-139.68;100.00
10940;BME280;5522;42.696;23.494;2023-02-28T04:16:45;53745.25;;;-139.68;100.00
10940;BME280;5522;42.696;23.494;2023-02-28T04:19:13;53723.13;;;-139.68;100.00
10940;BME280;5522;42.696;23.494;2023-02-28T04:21:42;53767.38;;;-139.68;100.00
10940;BME280;5522;42.696;23.494;2023-02-28T04:24:13;53749.28;;;-139.68;100.00
10940;BME280;5522;42.696;23.494;2023-02-28T04:26:41;53727.16;;;-139.68;100.00
10940;BME280;5522;42.696;23.494;2023-02-28T04:29:10;53725.16;;;-139.68;100.00
10940;BME280;5522;42.696;23.494;2023-02-28T04:31:37;53775.41;;;-139.68;100.00
10940;BME280;5522;42.696;23.494;2023-02-28T04:34:05;53751.28;;;-139.68;100.00
10940;BME280;5522;42.696;23.494;2023-02-28T04:36:32;53717.13;;;-139.68;100.00
10940;BME280;5522;42.696;23.494;2023-02-28T04:38:59;53723.13;;;-139.68;100.00
10940;BME280;5522;42.696;23.494;2023-02-28T04:41:27;53759.31;;;-139.68;100.00
10940;BME280;5522;42.696;23.494;2023-02-28T04:43:54;53743.25;;;-139.68;100.00
10940;BME280;5522;42.696;23.494;2023-02-28T04:46:21;53763.34;;;-139.68;100.00
10940;BME280;5522;42.696;23.494;2023-02-28T04:48:49;53781.44;;;-139.68;100.00
10940;BME280;5522;42.696;23.494;2023-02-28T04:51:17;53735.19;;;-139.68;100.00
10940;BME280;5522;42.696;23.494;2023-02-28T04:53:44;53779.44;;;-139.68;100.00
10940;BME280;5522;42.696;23.494;2023-02-28T04:56:13;53761.34;;;-139.68;100.00
10940;BME280;5522;42.696;23.494;2023-02-28T04:58:41;53779.44;;;-139.68;100.00
10940;BME280;5522;42.696;23.494;2023-02-28T05:01:18;53789.47;;;-139.68;100.00
10940;BME280;5522;42.696;23.494;2023-02-28T05:03:45;53755.31;;;-139.68;100.00
10940;BME280;5522;42.696;23.494;2023-02-28T05:06:12;53729.16;;;-139.68;100.00
10940;BME280;5522;42.696;23.494;2023-02-28T05:08:39;53755.31;;;-139.68;100.00
10940;BME280;5522;42.696;23.494;2023-02-28T05:11:08;53773.41;;;-139.68;100.00
10940;BME280;5522;42.696;23.494;2023-02-28T05:13:39;53747.25;;;-139.68;100.00
10940;BME280;5522;42.696;23.494;2023-02-28T05:16:07;53791.50;;;-139.68;100.00
10940;BME280;5522;42.696;23.494;2023-02-28T05:18:34;53749.28;;;-139.68;100.00
10940;BME280;5522;42.696;23.494;2023-02-28T05:21:01;53761.34;;;-139.68;100.00
10940;BME280;5522;42.696;23.494;2023-02-28T05:23:28;53741.22;;;-139.68;100.00
10940;BME280;5522;42.696;23.494;2023-02-28T05:25:55;53735.19;;;-139.68;100.00
10940;BME280;5522;42.696;23.494;2023-02-28T05:28:22;53781.44;;;-139.68;100.00
10940;BME280;5522;42.696;23.494;2023-02-28T05:30:49;53735.19;;;-139.68;100.00
10940;BME280;5522;42.696;23.494;2023-02-28T05:33:17;53761.34;;;-139.68;100.00
10940;BME280;5522;42.696;23.494;2023-02-28T05:35:44;53779.44;;;-139.68;100.00
10940;BME280;5522;42.696;23.494;2023-02-28T05:38:11;53771.38;;;-139.68;100.00
10940;BME280;5522;42.696;23.494;2023-02-28T05:40:38;53799.53;;;-139.68;100.00
10940;BME280;5522;42.696;23.494;2023-02-28T05:43:05;53815.63;;;-139.68;100.00
10940;BME280;5522;42.696;23.494;2023-02-28T05:45:32;53751.28;;;-139.68;100.00
10940;BME280;5522;42.696;23.494;2023-02-28T05:47:59;53783.44;;;-139.68;100.00
10940;BME280;5522;42.696;23.494;2023-02-28T05:50:27;53775.41;;;-139.68;100.00
10940;BME280;5522;42.696;23.494;2023-02-28T05:52:54;53787.47;;;-139.68;100.00
10940;BME280;5522;42.696;23.494;2023-02-28T05:55:21;53783.44;;;-139.68;100.00
10940;BME280;5522;42.696;23.494;2023-02-28T05:57:47;53751.28;;;-139.68;100.00
10940;BME280;5522;42.696;23.494;2023-02-28T06:00:15;53767.38;;;-139.68;100.00
10940;BME280;5522;42.696;23.494;2023-02-28T06:02:43;53735.19;;;-139.68;100.00
10940;BME280;5522;42.696;23.494;2023-02-28T06:05:13;53735.19;;;-139.68;100.00
10940;BME280;5522;42.696;23.494;2023-02-28T06:07:42;53745.25;;;-139.68;100.00
10940;BME280;5522;42.696;23.494;2023-02-28T06:10:10;53741.22;;;-139.68;100.00
10940;BME280;5522;42.696;23.494;2023-02-28T06:12:37;53753.28;;;-139.68;100.00
10940;BME280;5522;42.696;23.494;2023-02-28T06:15:05;53783.44;;;-139.68;100.00
10940;BME280;5522;42.696;23.494;2023-02-28T06:17:32;53737.22;;;-139.68;100.00
10940;BME280;5522;42.696;23.494;2023-02-28T06:19:58;53751.28;;;-139.68;100.00
10940;BME280;5522;42.696;23.494;2023-02-28T06:22:25;53771.38;;;-139.68;100.00
10940;BME280;5522;42.696;23.494;2023-02-28T06:24:54;53725.16;;;-139.68;100.00
10940;BME280;5522;42.696;23.494;2023-02-28T06:27:22;53775.41;;;-139.68;100.00
10940;BME280;5522;42.696;23.494;2023-02-28T06:29:49;53733.19;;;-139.68;100.00
10940;BME280;5522;42.696;23.494;2023-02-28T06:32:19;53759.31;;;-139.68;100.00
10940;BME280;5522;42.696;23.494;2023-02-28T06:34:46;53767.38;;;-139.68;100.00
10940;BME280;5522;42.696;23.494;2023-02-28T06:37:13;53771.38;;;-139.68;100.00
10940;BME280;5522;42.696;23.494;2023-02-28T06:39:40;53763.34;;;-139.68;100.00
10940;BME280;5522;42.696;23.494;2023-02-28T06:42:08;53765.34;;;-139.68;100.00
10940;BME280;5522;42.696;23.494;2023-02-28T06:44:35;53767.38;;;-139.68;100.00
10940;BME280;5522;42.696;23.494;2023-02-28T06:47:03;53811.59;;;-139.68;100.00
10940;BME280;5522;42.696;23.494;2023-02-28T06:49:31;53795.50;;;-139.68;100.00
10940;BME280;5522;42.696;23.494;2023-02-28T06:51:58;53787.47;;;-139.68;100.00
10940;BME280;5522;42.696;23.494;2023-02-28T06:54:25;53767.38;;;-139.68;100.00
10940;BME280;5522;42.696;23.494;2023-02-28T06:56:52;53765.34;;;-139.68;100.00
10940;BME280;5522;42.696;23.494;2023-02-28T06:59:21;53741.22;;;-139.68;100.00
10940;BME280;5522;42.696;23.494;2023-02-28T07:01:48;53775.41;;;-139.68;100.00
10940;BME280;5522;42.696;23.494;2023-02-28T07:04:15;53759.31;;;-139.68;100.00
10940;BME280;5522;42.696;23.494;2023-02-28T07:06:42;53775.41;;;-139.68;100.00
10940;BME280;5522;42.696;23.494;2023-02-28T07:09:09;53781.44;;;-139.68;100.00
10940;BME280;5522;42.696;23.494;2023-02-28T07:11:36;53759.31;;;-139.68;100.00
10940;BME280;5522;42.696;23.494;2023-02-28T07:14:02;53787.47;;;-139.68;100.00
10940;BME280;5522;42.696;23.494;2023-02-28T07:16:31;53793.50;;;-139.68;100.00
10940;BME280;5522;42.696;23.494;2023-02-28T07:18:58;53769.38;;;-139.68;100.00
10940;BME280;5522;42.696;23.494;2023-02-28T07:21:24;53759.31;;;-139.68;100.00
10940;BME280;5522;42.696;23.494;2023-02-28T07:23:51;53799.53;;;-139.68;100.00
10940;BME280;5522;42.696;23.494;2023-02-28T07:26:19;53763.34;;;-139.68;100.00
10940;BME280;5522;42.696;23.494;2023-02-28T07:28:47;53805.56;;;-139.68;100.00
10940;BME280;5522;42.696;23.494;2023-02-28T07:31:15;53797.53;;;-139.68;100.00
10940;BME280;5522;42.696;23.494;2023-02-28T07:33:44;53775.41;;;-139.68;100.00
10940;BME280;5522;42.696;23.494;2023-02-28T07:36:12;53781.44;;;-139.68;100.00
10940;BME280;5522;42.696;23.494;2023-02-28T07:38:41;53783.44;;;-139.68;100.00
10940;BME280;5522;42.696;23.494;2023-02-28T07:41:08;53805.56;;;-139.68;100.00
10940;BME280;5522;42.696;23.494;2023-02-28T07:43:36;53791.50;;;-139.68;100.00
10940;BME280;5522;42.696;23.494;2023-02-28T07:46:03;53783.44;;;-139.68;100.00
10940;BME280;5522;42.696;23.494;2023-02-28T07:48:30;53795.50;;;-139.68;100.00
10940;BME280;5522;42.696;23.494;2023-02-28T07:50:59;53779.44;;;-139.68;100.00
10940;BME280;5522;42.696;23.494;2023-02-28T07:53:27;53835.72;;;-139.68;100.00
10940;BME280;5522;42.696;23.494;2023-02-28T07:55:55;53789.47;;;-139.68;100.00
10940;BME280;5522;42.696;23.494;2023-02-28T07:58:23;53779.44;;;-139.68;100.00
10940;BME280;5522;42.696;23.494;2023-02-28T08:00:50;53783.44;;;-139.68;100.00
10940;BME280;5522;42.696;23.494;2023-02-28T08:03:17;53731.19;;;-139.68;100.00
10940;BME280;5522;42.696;23.494;2023-02-28T08:05:45;53795.50;;;-139.68;100.00
10940;BME280;5522;42.696;23.494;2023-02-28T08:08:13;53823.66;;;-139.68;100.00
10940;BME280;5522;42.696;23.494;2023-02-28T08:10:40;53783.44;;;-139.68;100.00
10940;BME280;5522;42.696;23.494;2023-02-28T08:13:07;53819.63;;;-139.68;100.00
10940;BME280;5522;42.696;23.494;2023-02-28T08:15:34;53791.50;;;-139.68;100.00
10940;BME280;5522;42.696;23.494;2023-02-28T08:18:01;53827.69;;;-139.68;100.00
10940;BME280;5522;42.696;23.494;2023-02-28T08:20:28;53823.66;;;-139.68;100.00
10940;BME280;5522;42.696;23.494;2023-02-28T08:22:56;53765.34;;;-139.68;100.00
10940;BME280;5522;42.696;23.494;2023-02-28T08:25:24;53775.41;;;-139.68;100.00
10940;BME280;5522;42.696;23.494;2023-02-28T08:27:51;53801.53;;;-139.68;100.00
10940;BME280;5522;42.696;23.494;2023-02-28T08:30:18;53843.75;;;-139.68;100.00
10940;BME280;5522;42.696;23.494;2023-02-28T08:32:45;53813.59;;;-139.68;100.00
10940;BME280;5522;42.696;23.494;2023-02-28T08:35:12;53809.59;;;-139.68;100.00
10940;BME280;5522;42.696;23.494;2023-02-28T08:37:38;53807.56;;;-139.68;100.00
10940;BME280;5522;42.696;23.494;2023-02-28T08:40:06;53791.50;;;-139.68;100.00
10940;BME280;5522;42.696;23.494;2023-02-28T08:42:35;53795.50;;;-139.68;100.00
10940;BME280;5522;42.696;23.494;2023-02-28T08:45:02;53819.63;;;-139.68;100.00
10940;BME280;5522;42.696;23.494;2023-02-28T08:47:29;53753.28;;;-139.68;100.00
10940;BME280;5522;42.696;23.494;2023-02-28T08:49:56;53813.59;;;-139.68;100.00
10940;BME280;5522;42.696;23.494;2023-02-28T08:52:23;53811.59;;;-139.68;100.00
10940;BME280;5522;42.696;23.494;2023-02-28T08:54:50;53807.56;;;-139.68;100.00
10940;BME280;5522;42.696;23.494;2023-02-28T08:57:16;53807.56;;;-139.68;100.00
10940;BME280;5522;42.696;23.494;2023-02-28T08:59:44;53795.50;;;-139.68;100.00
10940;BME280;5522;42.696;23.494;2023-02-28T09:02:12;53785.47;;;-139.68;100.00
10940;BME280;5522;42.696;23.494;2023-02-28T09:04:39;53803.56;;;-139.68;100.00
10940;BME280;5522;42.696;23.494;2023-02-28T09:07:07;53823.66;;;-139.68;100.00
10940;BME280;5522;42.696;23.494;2023-02-28T09:09:34;53769.38;;;-139.68;100.00
10940;BME280;5522;42.696;23.494;2023-02-28T09:12:00;53783.44;;;-139.68;100.00
10940;BME280;5522;42.696;23.494;2023-02-28T09:14:28;53819.63;;;-139.68;100.00
10940;BME280;5522;42.696;23.494;2023-02-28T09:16:56;53823.66;;;-139.68;100.00
10940;BME280;5522;42.696;23.494;2023-02-28T09:19:23;53783.44;;;-139.68;100.00
10940;BME280;5522;42.696;23.494;2023-02-28T09:21:50;53809.59;;;-139.68;100.00
10940;BME280;5522;42.696;23.494;2023-02-28T09:24:17;53831.69;;;-139.68;100.00
10940;BME280;5522;42.696;23.494;2023-02-28T09:26:45;53803.56;;;-139.68;100.00
10940;BME280;5522;42.696;23.494;2023-02-28T09:29:12;53819.63;;;-139.68;100.00
10940;BME280;5522;42.696;23.494;2023-02-28T09:31:39;53825.66;;;-139.68;100.00
10940;BME280;5522;42.696;23.494;2023-02-28T09:34:08;53799.53;;;-139.68;100.00
10940;BME280;5522;42.696;23.494;2023-02-28T09:36:35;53791.50;;;-139.68;100.00
10940;BME280;5522;42.696;23.494;2023-02-28T09:39:03;53837.72;;;-139.68;100.00
10940;BME280;5522;42.696;23.494;2023-02-28T09:41:37;53833.72;;;-139.68;100.00
10940;BME280;5522;42.696;23.494;2023-02-28T09:44:17;53809.59;;;-139.68;100.00
10940;BME280;5522;42.696;23.494;2023-02-28T09:46:48;53827.69;;;-139.68;100.00
10940;BME280;5522;42.696;23.494;2023-02-28T09:49:23;53857.84;;;-139.68;100.00
10940;BME280;5522;42.696;23.494;2023-02-28T09:51:55;53795.50;;;-139.68;100.00
10940;BME280;5522;42.696;23.494;2023-02-28T09:54:26;53771.38;;;-139.68;100.00
10940;BME280;5522;42.696;23.494;2023-02-28T09:56:58;53823.66;;;-139.68;100.00
10940;BME280;5522;42.696;23.494;2023-02-28T09:59:38;53815.63;;;-139.68;100.00
10940;BME280;5522;42.696;23.494;2023-02-28T10:02:17;53801.53;;;-139.68;100.00
10940;BME280;5522;42.696;23.494;2023-02-28T10:04:51;53819.63;;;-139.68;100.00
10940;BME280;5522;42.696;23.494;2023-02-28T10:07:32;53843.75;;;-139.68;100.00
10940;BME280;5522;42.696;23.494;2023-02-28T10:10:06;53847.78;;;-139.68;100.00
10940;BME280;5522;42.696;23.494;2023-02-28T10:12:40;53811.59;;;-139.68;100.00
10940;BME280;5522;42.696;23.494;2023-02-28T10:15:14;53815.63;;;-139.68;100.00
10940;BME280;5522;42.696;23.494;2023-02-28T10:17:43;53795.50;;;-139.68;100.00
10940;BME280;5522;42.696;23.494;2023-02-28T10:20:20;53825.66;;;-139.68;100.00
10940;BME280;5522;42.696;23.494;2023-02-28T10:22:52;53775.41;;;-139.68;100.00
10940;BME280;5522;42.696;23.494;2023-02-28T10:25:22;53795.50;;;-139.68;100.00
10940;BME280;5522;42.696;23.494;2023-02-28T10:27:50;53803.56;;;-139.68;100.00
10940;BME280;5522;42.696;23.494;2023-02-28T10:30:19;53839.75;;;-139.68;100.00
10940;BME280;5522;42.696;23.494;2023-02-28T10:32:50;53779.44;;;-139.68;100.00
10940;BME280;5522;42.696;23.494;2023-02-28T10:35:22;53843.75;;;-139.68;100.00
10940;BME280;5522;42.696;23.494;2023-02-28T10:37:50;53793.50;;;-139.68;100.00
10940;BME280;5522;42.696;23.494;2023-02-28T10:40:32;53827.69;;;-139.68;100.00
10940;BME280;5522;42.696;23.494;2023-02-28T10:43:02;53839.75;;;-139.68;100.00
10940;BME280;5522;42.696;23.494;2023-02-28T10:45:31;53777.41;;;-139.68;100.00
10940;BME280;5522;42.696;23.494;2023-02-28T10:48:01;53823.66;;;-139.68;100.00
10940;BME280;5522;42.696;23.494;2023-02-28T10:50:35;53805.56;;;-139.68;100.00
10940;BME280;5522;42.696;23.494;2023-02-28T10:53:25;53835.72;;;-139.68;100.00
10940;BME280;5522;42.696;23.494;2023-02-28T10:55:59;53823.66;;;-139.68;100.00
10940;BME280;5522;42.696;23.494;2023-02-28T10:58:29;53803.56;;;-139.68;100.00
10940;BME280;5522;42.696;23.494;2023-02-28T11:00:57;53819.63;;;-139.68;100.00
10940;BME280;5522;42.696;23.494;2023-02-28T11:03:30;53783.44;;;-139.68;100.00
10940;BME280;5522;42.696;23.494;2023-02-28T11:06:05;53811.59;;;-139.68;100.00
10940;BME280;5522;42.696;23.494;2023-02-28T11:08:33;53815.63;;;-139.68;100.00
10940;BME280;5522;42.696;23.494;2023-02-28T11:11:04;53835.72;;;-139.68;100.00
10940;BME280;5522;42.696;23.494;2023-02-28T11:13:33;53843.75;;;-139.68;100.00
10940;BME280;5522;42.696;23.494;2023-02-28T11:16:04;53799.53;;;-139.68;100.00
10940;BME280;5522;42.696;23.494;2023-02-28T11:18:38;53791.50;;;-139.68;100.00
10940;BME280;5522;42.696;23.494;2023-02-28T11:21:09;53819.63;;;-139.68;100.00
10940;BME280;5522;42.696;23.494;2023-02-28T11:23:42;53839.75;;;-139.68;100.00
10940;BME280;5522;42.696;23.494;2023-02-28T11:26:09;53835.72;;;-139.68;100.00
10940;BME280;5522;42.696;23.494;2023-02-28T11:28:38;53795.50;;;-139.68;100.00
10940;BME280;5522;42.696;23.494;2023-02-28T11:31:15;53837.72;;;-139.68;100.00
10940;BME280;5522;42.696;23.494;2023-02-28T11:33:46;53823.66;;;-139.68;100.00
10940;BME280;5522;42.696;23.494;2023-02-28T11:36:19;53851.81;;;-139.68;100.00
10940;BME280;5522;42.696;23.494;2023-02-28T11:38:50;53791.50;;;-139.68;100.00
10940;BME280;5522;42.696;23.494;2023-02-28T11:41:50;53819.63;;;-139.68;100.00
10940;BME280;5522;42.696;23.494;2023-02-28T11:44:32;53839.75;;;-139.68;100.00
10940;BME280;5522;42.696;23.494;2023-02-28T11:47:10;53791.50;;;-139.68;100.00
10940;BME280;5522;42.696;23.494;2023-02-28T11:49:52;53815.63;;;-139.68;100.00
10940;BME280;5522;42.696;23.494;2023-02-28T11:52:36;53849.78;;;-139.68;100.00
10940;BME280;5522;42.696;23.494;2023-02-28T11:55:15;53793.50;;;-139.68;100.00
10940;BME280;5522;42.696;23.494;2023-02-28T11:58:09;53783.44;;;-139.68;100.00
10940;BME280;5522;42.696;23.494;2023-02-28T12:00:55;53779.44;;;-139.68;100.00
10940;BME280;5522;42.696;23.494;2023-02-28T12:03:28;53791.50;;;-139.68;100.00
10940;BME280;5522;42.696;23.494;2023-02-28T12:06:05;53815.63;;;-139.68;100.00
10940;BME280;5522;42.696;23.494;2023-02-28T12:08:52;53823.66;;;-139.68;100.00
10940;BME280;5522;42.696;23.494;2023-02-28T12:11:33;53795.50;;;-139.68;100.00
10940;BME280;5522;42.696;23.494;2023-02-28T12:14:33;53799.53;;;-139.68;100.00
10940;BME280;5522;42.696;23.494;2023-02-28T12:17:20;53819.63;;;-139.68;100.00
10940;BME280;5522;42.696;23.494;2023-02-28T12:19:57;53815.63;;;-139.68;100.00
10940;BME280;5522;42.696;23.494;2023-02-28T12:22:29;53821.66;;;-139.68;100.00
10940;BME280;5522;42.696;23.494;2023-02-28T12:25:19;53815.63;;;-139.68;100.00
10940;BME280;5522;42.696;23.494;2023-02-28T12:27:49;53801.53;;;-139.68;100.00
10940;BME280;5522;42.696;23.494;2023-02-28T12:30:22;53845.78;;;-139.68;100.00
10940;BME280;5522;42.696;23.494;2023-02-28T12:32:54;53767.38;;;-139.68;100.00
10940;BME280;5522;42.696;23.494;2023-02-28T12:35:25;53827.69;;;-139.68;100.00
10940;BME280;5522;42.696;23.494;2023-02-28T12:37:57;53823.66;;;-139.68;100.00
10940;BME280;5522;42.696;23.494;2023-02-28T12:40:41;53795.50;;;-139.68;100.00
10940;BME280;5522;42.696;23.494;2023-02-28T12:43:11;53797.53;;;-139.68;100.00
10940;BME280;5522;42.696;23.494;2023-02-28T12:45:43;53805.56;;;-139.68;100.00
10940;BME280;5522;42.696;23.494;2023-02-28T12:48:16;53813.59;;;-139.68;100.00
10940;BME280;5522;42.696;23.494;2023-02-28T12:50:45;53815.63;;;-139.68;100.00
10940;BME280;5522;42.696;23.494;2023-02-28T12:53:18;53793.50;;;-139.68;100.00
10940;BME280;5522;42.696;23.494;2023-02-28T12:55:57;53803.56;;;-139.68;100.00